createdAt,value
2022-08-14T00:01:23.917Z,3.50
2022-08-14T00:03:50.931Z,3.50
2022-08-14T00:06:25.618Z,3.10
2022-08-14T00:08:58.989Z,3.90
2022-08-14T00:11:31.399Z,3.60
2022-08-14T00:14:01.999Z,3.77
2022-08-14T00:16:41.364Z,3.60
2022-08-14T00:19:21.346Z,4.20
2022-08-14T00:21:50.937Z,3.90
2022-08-14T00:24:23.345Z,3.57
2022-08-14T00:26:57.159Z,3.57
2022-08-14T00:29:25.139Z,3.77
2022-08-14T00:31:56.058Z,4.10
2022-08-14T00:34:36.602Z,3.50
2022-08-14T00:37:05.599Z,3.67
2022-08-14T00:39:32.667Z,3.13
2022-08-14T00:41:59.799Z,3.67
2022-08-14T00:44:32.231Z,3.53
2022-08-14T00:47:03.450Z,3.90
2022-08-14T00:49:42.701Z,4.47
2022-08-14T00:52:14.021Z,3.67
2022-08-14T00:54:45.676Z,3.50
2022-08-14T00:57:12.685Z,4.37
2022-08-14T00:59:39.540Z,3.97
2022-08-14T01:02:09.540Z,4.27
2022-08-14T01:04:54.178Z,3.80
2022-08-14T01:07:23.392Z,3.87
2022-08-14T01:09:51.639Z,3.97
2022-08-14T01:12:27.106Z,3.90
2022-08-14T01:15:02.071Z,3.50
2022-08-14T01:17:50.650Z,3.47
2022-08-14T01:20:39.335Z,3.87
2022-08-14T01:23:16.797Z,4.00
2022-08-14T01:25:46.463Z,3.90
2022-08-14T01:28:46.516Z,4.23
2022-08-14T01:31:01.779Z,3.77
2022-08-14T01:33:30.067Z,4.00
2022-08-14T01:36:05.028Z,3.70
2022-08-14T01:38:34.343Z,3.33
2022-08-14T01:41:12.006Z,3.43
2022-08-14T01:43:56.245Z,4.20
2022-08-14T01:46:25.430Z,3.33
2022-08-14T01:49:01.338Z,4.33
2022-08-14T01:51:29.585Z,3.90
2022-08-14T01:53:59.022Z,3.70
2022-08-14T01:56:39.525Z,3.90
2022-08-14T01:59:22.085Z,3.93
2022-08-14T02:01:58.713Z,3.53
2022-08-14T02:04:54.519Z,4.07
2022-08-14T02:07:15.705Z,3.90
2022-08-14T02:09:43.193Z,4.00
2022-08-14T02:12:10.267Z,4.30
2022-08-14T02:14:59.118Z,4.33
2022-08-14T02:17:30.873Z,4.03
2022-08-14T02:19:58.476Z,3.60
2022-08-14T02:22:28.765Z,4.00
2022-08-14T02:25:13.387Z,3.93
2022-08-14T02:28:24.751Z,3.70
2022-08-14T02:30:33.673Z,3.83
2022-08-14T02:33:01.128Z,3.83
2022-08-14T02:35:32.801Z,3.87
2022-08-14T02:37:59.906Z,4.00
2022-08-14T02:40:31.868Z,3.90
2022-08-14T02:43:02.404Z,4.00
2022-08-14T02:45:44.275Z,3.90
2022-08-14T02:49:04.033Z,4.50
2022-08-14T02:51:00.585Z,4.07
2022-08-14T02:53:29.404Z,3.83
2022-08-14T02:56:02.693Z,4.13
2022-08-14T02:58:32.213Z,4.00
2022-08-14T03:00:59.717Z,3.90
2022-08-14T03:03:31.690Z,4.37
2022-08-14T03:05:59.985Z,3.80
2022-08-14T03:08:31.636Z,4.00
2022-08-14T03:10:59.927Z,4.07
2022-08-14T03:13:27.307Z,4.03
2022-08-14T03:15:57.876Z,3.83
2022-08-14T03:18:31.495Z,4.20
2022-08-14T03:21:04.664Z,4.23
2022-08-14T03:23:38.252Z,4.10
2022-08-14T03:26:08.286Z,4.17
2022-08-14T03:28:34.997Z,4.40
2022-08-14T03:31:04.241Z,4.00
2022-08-14T03:33:38.429Z,4.17
2022-08-14T03:37:38.836Z,4.40
2022-08-14T03:39:14.960Z,3.77
2022-08-14T03:41:48.656Z,4.03
2022-08-14T03:45:19.679Z,3.77
2022-08-14T03:47:03.189Z,3.97
2022-08-14T03:49:30.274Z,3.90
2022-08-14T03:52:04.675Z,4.60
2022-08-14T03:54:44.558Z,4.30
2022-08-14T03:57:11.222Z,4.50
2022-08-14T03:59:37.892Z,4.70
2022-08-14T04:02:31.929Z,4.37
2022-08-14T04:04:53.299Z,4.20
2022-08-14T04:07:19.898Z,4.43
2022-08-14T04:09:48.793Z,4.50
2022-08-14T04:12:15.382Z,4.47
2022-08-14T04:14:53.476Z,4.13
2022-08-14T04:17:20.608Z,4.27
2022-08-14T04:19:49.015Z,4.40
2022-08-14T04:22:16.704Z,3.77
2022-08-14T04:24:44.751Z,4.03
2022-08-14T04:27:17.115Z,4.17
2022-08-14T04:29:45.147Z,3.83
2022-08-14T04:32:58.749Z,4.10
2022-08-14T04:34:59.347Z,4.17
2022-08-14T04:37:45.755Z,4.47
2022-08-14T04:40:32.658Z,4.33
2022-08-14T04:43:20.909Z,4.50
2022-08-14T04:45:51.070Z,4.10
2022-08-14T04:48:38.962Z,4.27
2022-08-14T04:51:13.326Z,4.13
2022-08-14T04:53:45.457Z,4.23
2022-08-14T04:56:31.602Z,4.70
2022-08-14T04:59:04.985Z,4.00
2022-08-14T05:01:39.938Z,4.30
2022-08-14T05:04:08.330Z,4.10
2022-08-14T05:06:39.171Z,4.60
2022-08-14T05:09:07.288Z,4.43
2022-08-14T05:11:38.251Z,4.60
2022-08-14T05:14:33.022Z,4.57
2022-08-14T05:16:52.320Z,3.87
2022-08-14T05:19:27.156Z,4.30
2022-08-14T05:22:15.487Z,3.83
2022-08-14T05:24:45.807Z,4.30
2022-08-14T05:27:19.791Z,3.80
2022-08-14T05:29:49.001Z,4.17
2022-08-14T05:32:15.782Z,3.87
2022-08-14T05:34:45.737Z,4.17
2022-08-14T05:37:15.234Z,3.83
2022-08-14T05:39:42.952Z,3.83
2022-08-14T05:42:22.349Z,4.17
2022-08-14T05:44:55.409Z,3.97
2022-08-14T05:47:22.983Z,4.63
2022-08-14T05:49:50.130Z,4.37
2022-08-14T05:52:18.590Z,4.53
2022-08-14T05:54:53.128Z,4.10
2022-08-14T05:57:20.687Z,3.87
2022-08-14T05:59:48.095Z,3.90
2022-08-14T06:02:14.736Z,3.57
2022-08-14T06:04:48.117Z,3.67
2022-08-14T06:07:16.628Z,3.93
2022-08-14T06:09:43.605Z,4.53
2022-08-14T06:12:55.376Z,4.10
2022-08-14T06:15:05.862Z,4.77
2022-08-14T06:17:58.670Z,4.40
2022-08-14T06:20:26.929Z,3.73
2022-08-14T06:22:55.162Z,3.80
2022-08-14T06:25:23.392Z,3.70
2022-08-14T06:27:51.650Z,3.93
2022-08-14T06:30:21.474Z,4.00
2022-08-14T06:32:52.371Z,3.17
2022-08-14T06:35:23.492Z,3.03
2022-08-14T06:37:58.167Z,3.27
2022-08-14T06:40:29.661Z,3.53
2022-08-14T06:43:07.058Z,3.40
2022-08-14T06:45:36.186Z,3.57
2022-08-14T06:48:06.133Z,3.93
2022-08-14T06:50:39.642Z,3.57
2022-08-14T06:53:07.197Z,3.27
2022-08-14T06:55:34.359Z,3.40
2022-08-14T06:58:03.767Z,3.03
2022-08-14T07:00:31.257Z,3.17
2022-08-14T07:03:17.675Z,3.20
2022-08-14T07:05:57.975Z,3.20
2022-08-14T07:08:29.743Z,3.50
2022-08-14T07:11:01.334Z,2.70
2022-08-14T07:13:28.492Z,3.40
2022-08-14T07:15:58.551Z,3.20
2022-08-14T07:18:27.718Z,3.23
2022-08-14T07:20:56.157Z,2.90
2022-08-14T07:23:24.004Z,2.70
2022-08-14T07:25:53.485Z,3.30
2022-08-14T07:28:34.787Z,3.07
2022-08-14T07:31:06.787Z,3.10
2022-08-14T07:33:43.609Z,2.50
2022-08-14T07:36:27.106Z,3.00
2022-08-14T07:39:00.332Z,2.73
2022-08-14T07:41:34.013Z,2.90
2022-08-14T07:44:28.831Z,2.77
2022-08-14T07:46:48.581Z,2.70
2022-08-14T07:49:17.821Z,3.00
2022-08-14T07:51:45.514Z,2.80
2022-08-14T07:54:12.609Z,2.87
2022-08-14T07:56:47.156Z,2.60
2022-08-14T07:59:16.790Z,2.53
2022-08-14T08:01:48.049Z,2.80
2022-08-14T08:04:24.228Z,2.83
2022-08-14T08:06:51.774Z,2.80
2022-08-14T08:09:21.274Z,2.70
2022-08-14T08:11:54.243Z,2.30
2022-08-14T08:14:24.661Z,2.57
2022-08-14T08:16:51.575Z,2.50
2022-08-14T08:19:19.028Z,3.03
2022-08-14T08:21:46.868Z,2.70
2022-08-14T08:24:18.460Z,2.50
2022-08-14T08:26:46.781Z,2.43
2022-08-14T08:29:20.222Z,2.80
2022-08-14T08:31:52.485Z,2.93
2022-08-14T08:34:23.588Z,2.93
2022-08-14T08:36:51.521Z,2.50
2022-08-14T08:39:22.751Z,2.90
2022-08-14T08:41:50.639Z,2.90
2022-08-14T08:44:32.268Z,2.60
2022-08-14T08:47:03.615Z,2.90
2022-08-14T08:49:52.736Z,2.85
2022-08-14T08:52:31.965Z,2.63
2022-08-14T08:55:00.746Z,2.80
2022-08-14T08:57:35.761Z,2.88
2022-08-14T09:00:25.100Z,3.00
2022-08-14T09:03:04.072Z,2.60
2022-08-14T09:05:33.148Z,2.47
2022-08-14T09:08:31.655Z,2.60
2022-08-14T09:11:19.603Z,3.10
2022-08-14T09:13:50.190Z,2.65
2022-08-14T09:16:23.713Z,2.63
2022-08-14T09:18:53.477Z,2.60
2022-08-14T09:21:21.427Z,2.53
2022-08-14T09:24:26.121Z,2.70
2022-08-14T09:26:41.664Z,2.80
2022-08-14T09:29:10.426Z,2.83
2022-08-14T09:31:52.896Z,2.92
2022-08-14T09:34:29.081Z,2.88
2022-08-14T09:37:26.649Z,2.75
2022-08-14T09:40:10.122Z,2.90
2022-08-14T09:43:03.247Z,2.97
2022-08-14T09:45:40.148Z,2.78
2022-08-14T09:48:27.526Z,2.70
2022-08-14T09:50:58.019Z,3.17
2022-08-14T09:54:17.748Z,3.00
2022-08-14T09:56:31.140Z,3.25
2022-08-14T09:59:00.239Z,2.90
2022-08-14T10:01:36.595Z,2.80
2022-08-14T10:04:33.153Z,2.95
2022-08-14T10:07:03.522Z,3.13
2022-08-14T10:09:33.473Z,3.03
2022-08-14T10:12:04.709Z,2.90
2022-08-14T10:14:36.708Z,3.20
2022-08-14T10:17:06.442Z,3.15
2022-08-14T10:19:36.470Z,2.80
2022-08-14T10:23:15.532Z,3.13
2022-08-14T10:24:57.514Z,3.17
2022-08-14T10:27:27.032Z,3.47
2022-08-14T10:30:00.767Z,2.95
2022-08-14T10:32:39.951Z,3.03
2022-08-14T10:35:13.529Z,3.03
2022-08-14T10:37:50.484Z,3.00
2022-08-14T10:40:44.561Z,3.15
2022-08-14T10:43:23.316Z,3.10
2022-08-14T10:46:21.442Z,3.20
2022-08-14T10:49:04.224Z,2.83
2022-08-14T10:51:34.194Z,3.03
2022-08-14T10:54:26.178Z,3.10
2022-08-14T10:57:12.905Z,2.83
2022-08-14T11:00:00.393Z,3.50
2022-08-14T11:02:53.908Z,3.10
2022-08-14T11:05:25.059Z,3.20
2022-08-14T11:08:00.734Z,2.88
2022-08-14T11:10:54.119Z,3.20
2022-08-14T11:13:27.303Z,3.00
2022-08-14T11:16:00.409Z,3.00
2022-08-14T11:18:30.145Z,3.00
2022-08-14T11:21:02.630Z,2.80
2022-08-14T11:23:38.637Z,3.00
2022-08-14T11:26:08.635Z,3.35
2022-08-14T11:28:46.317Z,3.05
2022-08-14T11:31:18.019Z,3.08
2022-08-14T11:33:49.002Z,2.75
2022-08-14T11:36:18.299Z,3.13
2022-08-14T11:38:46.520Z,3.20
2022-08-14T11:41:17.321Z,3.10
2022-08-14T11:43:58.264Z,2.85
2022-08-14T11:46:36.219Z,3.30
2022-08-14T11:49:06.192Z,2.70
2022-08-14T11:51:50.794Z,3.10
2022-08-14T11:54:33.591Z,3.00
2022-08-14T11:57:00.788Z,3.70
2022-08-14T11:59:32.873Z,3.55
2022-08-14T12:03:00.384Z,3.17
2022-08-14T12:04:58.572Z,3.28
2022-08-14T12:07:25.330Z,2.80
2022-08-14T12:09:56.385Z,3.65
2022-08-14T12:12:47.323Z,2.85
2022-08-14T12:15:12.479Z,2.97
2022-08-14T12:17:51.945Z,3.05
2022-08-14T12:20:30.038Z,2.92
2022-08-14T12:23:05.342Z,3.00
2022-08-14T12:25:34.665Z,3.10
2022-08-14T12:28:05.565Z,3.00
2022-08-14T12:30:44.069Z,3.15
2022-08-14T12:33:30.961Z,2.42
2022-08-14T12:36:00.583Z,2.70
2022-08-14T12:38:36.435Z,2.90
2022-08-14T12:41:09.167Z,3.03
2022-08-14T12:43:47.921Z,3.30
2022-08-14T12:46:46.764Z,3.10
2022-08-14T12:49:17.052Z,2.88
2022-08-14T12:51:55.485Z,2.63
2022-08-14T12:54:28.205Z,2.80
2022-08-14T12:57:55.315Z,3.03
2022-08-14T13:00:25.313Z,3.28
2022-08-14T13:02:55.180Z,2.70
2022-08-14T13:05:31.129Z,3.00
2022-08-14T13:07:59.860Z,3.03
2022-08-14T13:10:47.604Z,2.65
2022-08-14T13:13:19.208Z,2.53
2022-08-14T13:15:57.403Z,2.40
2022-08-14T13:18:27.663Z,2.60
2022-08-14T13:21:01.041Z,2.78
2022-08-14T13:23:33.389Z,2.63
2022-08-14T13:26:04.002Z,2.50
2022-08-14T13:28:33.632Z,2.45
2022-08-14T13:31:04.418Z,2.50
2022-08-14T13:33:38.128Z,2.22
2022-08-14T13:36:08.870Z,2.85
2022-08-14T13:38:35.839Z,2.50
2022-08-14T13:41:03.876Z,2.45
2022-08-14T13:43:36.519Z,2.53
2022-08-14T13:46:04.015Z,2.40
2022-08-14T13:48:33.254Z,2.22
2022-08-14T13:51:05.819Z,2.55
2022-08-14T13:53:49.533Z,2.50
2022-08-14T13:56:36.738Z,2.50
2022-08-14T13:59:04.786Z,2.30
2022-08-14T14:01:38.279Z,2.67
2022-08-14T14:04:19.643Z,2.40
2022-08-14T14:06:49.134Z,2.20
2022-08-14T14:09:21.281Z,2.25
2022-08-14T14:11:48.039Z,2.30
2022-08-14T14:14:45.263Z,2.33
2022-08-14T14:17:12.464Z,2.35
2022-08-14T14:19:41.304Z,2.60
2022-08-14T14:22:09.788Z,2.50
2022-08-14T14:24:38.644Z,2.10
2022-08-14T14:27:30.036Z,2.42
2022-08-14T14:29:55.600Z,2.47
2022-08-14T14:32:32.125Z,2.30
2022-08-14T14:35:03.708Z,2.33
2022-08-14T14:37:31.220Z,2.10
2022-08-14T14:40:52.730Z,2.10
2022-08-14T14:42:48.797Z,2.33
2022-08-14T14:45:20.420Z,2.30
2022-08-14T14:47:51.479Z,2.20
2022-08-14T14:50:26.439Z,2.17
2022-08-14T14:52:53.578Z,2.42
2022-08-14T14:55:59.569Z,2.00
2022-08-14T14:58:29.656Z,2.30
2022-08-14T15:00:59.866Z,2.25
2022-08-14T15:03:26.744Z,2.15
2022-08-14T15:05:54.279Z,2.08
2022-08-14T15:08:37.907Z,2.10
2022-08-14T15:11:13.709Z,2.10
2022-08-14T15:13:43.357Z,2.10
2022-08-14T15:16:21.702Z,2.10
2022-08-14T15:18:49.113Z,2.10
2022-08-14T15:21:16.042Z,2.28
2022-08-14T15:23:44.142Z,2.00
2022-08-14T15:26:23.704Z,2.55
2022-08-14T15:29:06.045Z,2.30
2022-08-14T15:31:36.639Z,2.30
2022-08-14T15:34:44.000Z,2.25
2022-08-14T15:37:02.186Z,2.00
2022-08-14T15:39:35.349Z,2.05
2022-08-14T15:42:14.692Z,2.10
2022-08-14T15:44:57.985Z,2.38
2022-08-14T15:47:29.874Z,2.20
2022-08-14T15:50:01.714Z,2.45
2022-08-14T15:52:35.273Z,2.42
2022-08-14T15:55:05.670Z,2.53
2022-08-14T15:57:33.391Z,2.33
2022-08-14T16:00:37.799Z,2.60
2022-08-14T16:03:09.708Z,2.50
2022-08-14T16:05:38.115Z,2.58
2022-08-14T16:08:26.910Z,2.35
2022-08-14T16:10:56.108Z,2.38
2022-08-14T16:13:39.015Z,2.35
2022-08-14T16:16:49.141Z,2.33
2022-08-14T16:19:03.144Z,2.17
2022-08-14T16:21:31.730Z,2.20
2022-08-14T16:24:00.448Z,2.20
2022-08-14T16:26:29.990Z,2.58
2022-08-14T16:29:04.772Z,2.40
2022-08-14T16:31:35.895Z,2.30
2022-08-14T16:34:46.032Z,2.20
2022-08-14T16:36:53.095Z,2.50
2022-08-14T16:39:22.316Z,2.40
2022-08-14T16:41:52.920Z,2.35
2022-08-14T16:44:33.852Z,2.30
2022-08-14T16:47:03.784Z,2.10
2022-08-14T16:50:03.365Z,2.40
2022-08-14T16:52:25.686Z,2.42
2022-08-14T16:55:07.546Z,2.35
2022-08-14T16:57:34.893Z,2.20
2022-08-14T17:00:07.027Z,2.28
2022-08-14T17:02:38.913Z,2.20
2022-08-14T17:05:24.721Z,2.22
2022-08-14T17:08:03.520Z,2.20
2022-08-14T17:10:50.026Z,2.47
2022-08-14T17:13:47.443Z,2.40
2022-08-14T17:16:23.989Z,2.53
2022-08-14T17:19:01.293Z,2.45
2022-08-14T17:21:31.662Z,2.50
2022-08-14T17:24:55.768Z,2.40
2022-08-14T17:27:04.052Z,2.58
2022-08-14T17:29:34.232Z,2.30
2022-08-14T17:32:22.339Z,2.15
2022-08-14T17:34:55.385Z,2.72
2022-08-14T17:37:37.429Z,2.22
2022-08-14T17:40:15.420Z,2.60
2022-08-14T17:42:51.839Z,2.75
2022-08-14T17:45:26.984Z,2.72
2022-08-14T17:47:59.307Z,2.60
2022-08-14T17:50:58.589Z,2.47
2022-08-14T17:53:25.829Z,2.67
2022-08-14T17:56:01.983Z,2.60
2022-08-14T17:58:38.439Z,2.40
2022-08-14T18:01:05.921Z,2.50
2022-08-14T18:03:44.917Z,2.42
2022-08-14T18:06:40.233Z,2.28
2022-08-14T18:09:20.061Z,2.20
2022-08-14T18:11:54.689Z,2.50
2022-08-14T18:14:32.251Z,2.50
2022-08-14T18:17:01.407Z,2.38
2022-08-14T18:19:30.501Z,2.42
2022-08-14T18:21:59.539Z,2.50
2022-08-14T18:24:29.359Z,2.60
2022-08-14T18:27:17.272Z,2.50
2022-08-14T18:29:55.837Z,2.40
2022-08-14T18:32:31.883Z,2.40
2022-08-14T18:34:59.902Z,2.10
2022-08-14T18:37:26.974Z,2.53
2022-08-14T18:40:03.082Z,2.10
2022-08-14T18:42:34.812Z,2.10
2022-08-14T18:45:01.924Z,2.40
2022-08-14T18:48:03.345Z,1.95
2022-08-14T18:50:31.295Z,2.40
2022-08-14T18:53:10.961Z,2.50
2022-08-14T18:55:53.035Z,2.33
2022-08-14T18:58:28.179Z,2.42
2022-08-14T19:01:01.625Z,2.77
2022-08-14T19:03:34.375Z,2.60
2022-08-14T19:06:06.203Z,2.55
2022-08-14T19:08:45.062Z,2.10
2022-08-14T19:11:39.894Z,2.53
2022-08-14T19:14:07.582Z,2.20
2022-08-14T19:16:36.892Z,2.30
2022-08-14T19:19:09.203Z,2.53
2022-08-14T19:21:53.649Z,2.80
2022-08-14T19:24:44.126Z,2.60
2022-08-14T19:27:24.592Z,2.50
2022-08-14T19:30:19.884Z,2.33
2022-08-14T19:32:51.058Z,2.80
2022-08-14T19:35:49.501Z,2.60
2022-08-14T19:38:59.293Z,2.80
2022-08-14T19:41:33.901Z,3.57
2022-08-14T19:44:13.002Z,3.10
2022-08-14T19:47:01.825Z,3.03
2022-08-14T19:50:08.862Z,3.40
2022-08-14T19:52:39.765Z,3.13
2022-08-14T19:55:20.550Z,3.27
2022-08-14T19:58:01.095Z,3.60
2022-08-14T20:00:30.290Z,3.43
2022-08-14T20:03:10.585Z,3.10
2022-08-14T20:05:45.811Z,3.97
2022-08-14T20:11:00.236Z,3.40
2022-08-14T20:11:21.087Z,3.43
2022-08-14T20:14:01.270Z,3.67
2022-08-14T20:16:34.694Z,3.30
2022-08-14T20:19:18.682Z,3.40
2022-08-14T20:21:58.373Z,3.53
2022-08-14T20:24:41.209Z,3.53
2022-08-14T20:27:33.295Z,3.90
2022-08-14T20:30:29.610Z,3.57
2022-08-14T20:33:02.093Z,3.40
2022-08-14T20:35:35.695Z,3.67
2022-08-14T20:38:31.908Z,3.40
2022-08-14T20:40:57.474Z,3.30
2022-08-14T20:43:52.768Z,3.37
2022-08-14T20:46:39.010Z,3.40
2022-08-14T20:49:10.893Z,3.50
2022-08-14T20:51:58.487Z,3.57
2022-08-14T20:54:34.505Z,3.27
2022-08-14T20:57:11.326Z,3.50
2022-08-14T20:59:44.527Z,3.30
2022-08-14T21:02:46.879Z,3.27
2022-08-14T21:05:21.825Z,3.63
2022-08-14T21:08:08.356Z,3.70
2022-08-14T21:10:47.670Z,3.10
2022-08-14T21:14:09.141Z,3.20
2022-08-14T21:16:05.303Z,3.30
2022-08-14T21:18:58.150Z,3.60
2022-08-14T21:21:41.608Z,3.80
2022-08-14T21:24:39.429Z,3.33
2022-08-14T21:27:04.549Z,3.20
2022-08-14T21:29:54.406Z,3.03
2022-08-14T21:32:34.508Z,3.40
2022-08-14T21:35:07.908Z,2.90
2022-08-14T21:37:46.014Z,3.20
2022-08-14T21:40:39.884Z,3.30
2022-08-14T21:43:03.762Z,3.10
2022-08-14T21:45:35.444Z,3.70
2022-08-14T21:48:10.904Z,3.43
2022-08-14T21:51:01.766Z,3.57
2022-08-14T21:53:31.304Z,3.10
2022-08-14T21:55:58.401Z,3.60
2022-08-14T21:58:52.672Z,3.60
2022-08-14T22:01:15.220Z,3.63
2022-08-14T22:03:45.117Z,3.77
2022-08-14T22:06:21.504Z,3.50
2022-08-14T22:08:56.747Z,3.43
2022-08-14T22:11:23.382Z,3.60
2022-08-14T22:13:52.189Z,3.20
2022-08-14T22:17:01.642Z,3.33
2022-08-14T22:19:13.685Z,3.10
2022-08-14T22:21:44.053Z,3.40
2022-08-14T22:24:12.419Z,3.37
2022-08-14T22:27:01.409Z,3.50
2022-08-14T22:29:28.679Z,3.20
2022-08-14T22:31:55.609Z,3.37
2022-08-14T22:34:22.705Z,3.30
2022-08-14T22:36:50.910Z,3.50
2022-08-14T22:39:18.932Z,3.77
2022-08-14T22:42:19.526Z,3.30
2022-08-14T22:44:48.522Z,3.50
2022-08-14T22:47:15.211Z,4.10
2022-08-14T22:50:31.396Z,3.40
2022-08-14T22:52:32.559Z,3.70
2022-08-14T22:55:00.368Z,3.60
2022-08-14T22:57:37.838Z,3.60
2022-08-14T23:00:16.629Z,3.60
2022-08-14T23:02:44.301Z,3.60
2022-08-14T23:05:13.025Z,3.97
2022-08-14T23:08:56.405Z,3.60
2022-08-14T23:10:31.623Z,4.00
2022-08-14T23:13:01.327Z,3.60
2022-08-14T23:15:29.836Z,3.70
2022-08-14T23:17:57.403Z,3.80
2022-08-14T23:20:29.308Z,3.83
2022-08-14T23:22:57.612Z,3.63
2022-08-14T23:25:44.640Z,3.60
2022-08-14T23:28:34.348Z,3.60
2022-08-14T23:31:11.754Z,3.70
2022-08-14T23:33:46.251Z,4.00
2022-08-14T23:36:28.481Z,4.10
2022-08-14T23:39:00.190Z,3.80
2022-08-14T23:41:26.881Z,3.87
2022-08-14T23:44:14.512Z,4.00
2022-08-14T23:46:41.828Z,3.80
2022-08-14T23:49:12.317Z,4.13
2022-08-14T23:51:39.339Z,3.53
2022-08-14T23:54:06.054Z,3.97
2022-08-14T23:57:00.040Z,3.57
2022-08-14T23:59:31.706Z,3.70
